Pagina principale
METAR-TAF:

METAR-TAF

Aeroporti :

Beauvechain, Belgio

latitudine: 50-45N, longitudine: 004-46E, altezza: 105 m

Osservazione

Il bollettino è stato emesso 30 minuti fa, alle 09:55 UTC
Vento 10 kt da ovest
Temperature 14°C
Umidità 58%
Pressione 1008 hPa
Visibilità 10 km o più

METAR: EBBE 070955Z AUTO 26010KT 9999 FEW031/// SCT040/// BKN050/// 14/06 Q1008 BLU

Ora: 12:25 (10:25 UTC)


TAF: mancante

Osservazioni e previsioni meteorologiche di più di 4000 aeroporti (messaggi METAR e TAF).

Le stazioni disponibili sono rappresentate dai dischi gialli e rossi sulla carta.

Puntare il mouse per vedere il nome della stazione.

Clicca sopra per visualizzare le osservazioni e previsioni meteorologiche.

Per cambiare la mappa : fare clic sui pulsanti verdi con una croce nera per ingrandire, il pulsante verde con un trattino per diminuire, o sulla freccia verde per le mappe adiacenti.


METAR-TAF: